TimeEST,TemperatureF,Dew PointF,Humidity,Sea Level PressureIn,VisibilityMPH,Wind Direction,Wind SpeedMPH,Gust SpeedMPH,PrecipitationIn,Events,Conditions,WindDirDegrees,DateUTC
12:53 AM,41.0,33.1,73,30.11,10.0,NNW,10.4,-,N/A,,Clear,330,2013-03-02 05:53:00
1:53 AM,39.9,32.0,73,30.13,10.0,NW,9.2,-,N/A,,Clear,310,2013-03-02 06:53:00
2:53 AM,37.9,28.0,68,30.14,10.0,WNW,10.4,-,N/A,,Clear,300,2013-03-02 07:53:00
3:53 AM,36.0,28.9,76,30.13,10.0,WNW,3.5,-,N/A,,Clear,300,2013-03-02 08:53:00
4:53 AM,35.1,28.9,78,30.12,10.0,Calm,Calm,-,N/A,,Clear,0,2013-03-02 09:53:00
5:53 AM,33.1,28.0,82,30.13,10.0,Calm,Calm,-,N/A,,Clear,0,2013-03-02 10:53:00
6:53 AM,33.8,28.4,81,30.10,10.0,Calm,Calm,-,N/A,,Clear,0,2013-03-02 11:53:00
7:53 AM,34.0,28.9,82,30.15,10.0,Calm,Calm,-,N/A,,Clear,0,2013-03-02 12:53:00
8:53 AM,41.0,30.0,65,30.17,10.0,West,10.4,-,N/A,,Clear,280,2013-03-02 13:53:00
9:53 AM,43.0,26.1,51,30.17,10.0,WNW,13.8,-,N/A,,Clear,300,2013-03-02 14:53:00
10:53 AM,46.0,26.1,46,30.15,10.0,WNW,16.1,25.3,N/A,,Clear,300,2013-03-02 15:53:00
11:53 AM,48.0,27.0,44,30.13,10.0,NW,18.4,24.2,N/A,,Clear,310,2013-03-02 16:53:00
12:53 PM,50.0,25.0,38,30.11,10.0,West,17.3,-,N/A,,Scattered Clouds,270,2013-03-02 17:53:00
1:53 PM,51.1,25.0,36,30.08,10.0,WNW,19.6,25.3,N/A,,Clear,300,2013-03-02 18:53:00
2:53 PM,52.0,26.1,37,30.06,10.0,NW,17.3,-,N/A,,Scattered Clouds,310,2013-03-02 19:53:00
3:53 PM,50.0,25.0,38,30.06,10.0,NW,17.3,21.9,N/A,,Scattered Clouds,310,2013-03-02 20:53:00
4:53 PM,48.0,25.0,41,30.06,10.0,NW,15.0,21.9,N/A,,Scattered Clouds,310,2013-03-02 21:53:00
5:53 PM,48.0,27.0,44,30.08,10.0,NW,15.0,-,N/A,,Partly Cloudy,310,2013-03-02 22:53:00
6:53 PM,43.0,25.0,49,30.10,10.0,NW,13.8,-,N/A,,Scattered Clouds,310,2013-03-02 23:53:00
7:53 PM,41.0,26.6,57,30.10,10.0,NW,8.1,-,N/A,,Scattered Clouds,320,2013-03-03 00:53:00
8:53 PM,41.0,27.0,57,30.16,10.0,NW,10.4,-,N/A,,Scattered Clouds,320,2013-03-03 01:53:00
9:53 PM,41.0,28.0,60,30.17,10.0,WNW,9.2,-,N/A,,Overcast,300,2013-03-03 02:53:00
10:53 PM,39.9,27.0,60,30.16,10.0,WNW,10.4,-,N/A,,Overcast,300,2013-03-03 03:53:00
11:53 PM,39.9,27.0,60,30.16,10.0,WNW,10.4,-,N/A,,Overcast,290,2013-03-03 04:53:00